Duchess, Canada
Current Conditions -  °F | °C
As of 8:00 PM on Tuesday 25 Nov 2014 (Local Time) from CYXH Reporting Station
Overcast Overcast  
Wind Chill: 22°   Ceiling: 2800
Heat Index: 28°   Visibility: 15mi
Dew Point: 25°   Wind: 6mph
Humidity: 86%   Direction: 250°WSW
Pressure: 30.14"   Gusts: NA
Location:  50.73°N, 111.9°W
Report Text: CYXH 260300Z 25005KT 15SM OVC028 M02/M04 A3014 RMK SC8 LAST STFD OBS/NEXT 261300Z SLP236
Loading
Personal Weather Stations






























Interactive Weather Map New forecast layout! Learn more

10-Day Weather Forecast

Advertisements
Track Severe Weather on mobile